createdAt,value
2019-03-05T00:03:25.613Z,65.23
2019-03-05T00:07:30.815Z,65.20
2019-03-05T00:11:47.347Z,64.69
2019-03-05T00:20:26.397Z,64.60
2019-03-05T00:24:45.672Z,64.84
2019-03-05T00:29:28.900Z,64.84
2019-03-05T00:34:12.214Z,64.76
2019-03-05T00:38:39.203Z,64.76
2019-03-05T00:43:22.413Z,65.30
2019-03-05T00:47:42.686Z,64.71
2019-03-05T00:52:25.969Z,64.13
2019-03-05T00:57:09.271Z,62.93
2019-03-05T01:01:52.546Z,62.83
2019-03-05T01:06:36.078Z,62.92
2019-03-05T01:10:41.200Z,61.96
2019-03-05T01:14:46.435Z,62.25
2019-03-05T01:18:51.689Z,62.49
2019-03-05T01:23:08.516Z,63.44
2019-03-05T01:27:13.713Z,64.08
2019-03-05T01:31:37.788Z,65.06
2019-03-05T01:35:51.145Z,65.71
2019-03-05T01:40:15.230Z,66.72
2019-03-05T01:44:20.342Z,66.75
2019-03-05T01:48:44.616Z,67.49
2019-03-05T01:52:49.775Z,67.67
2019-03-05T01:56:55.022Z,68.04
2019-03-05T02:01:00.203Z,67.91
2019-03-05T02:05:16.582Z,67.85
2019-03-05T02:09:21.760Z,67.85
2019-03-05T02:13:26.912Z,67.76
2019-03-05T02:17:32.054Z,67.50
2019-03-05T02:21:37.255Z,67.56
2019-03-05T02:26:14.565Z,67.48
2019-03-05T02:30:57.771Z,67.81
2019-03-05T02:35:41.315Z,67.90
2019-03-05T02:39:58.378Z,67.94
2019-03-05T02:44:41.621Z,67.94
2019-03-05T02:49:24.898Z,67.95
2019-03-05T02:53:51.589Z,68.08
2019-03-05T02:57:55.042Z,68.11
2019-03-05T03:02:20.751Z,68.42
2019-03-05T03:11:04.231Z,68.60
2019-03-05T03:19:49.378Z,68.65
2019-03-05T03:23:54.515Z,68.21
2019-03-05T03:28:11.113Z,68.42
2019-03-05T03:32:16.293Z,69.29
2019-03-05T03:36:21.356Z,70.02
2019-03-05T03:40:26.561Z,70.65
2019-03-05T03:44:31.713Z,71.14
2019-03-05T03:48:56.003Z,71.00
2019-03-05T03:53:20.992Z,70.98
2019-03-05T03:57:26.110Z,70.51
2019-03-05T04:01:31.410Z,70.60
2019-03-05T04:05:36.631Z,70.50
2019-03-05T04:09:41.727Z,70.28
2019-03-05T04:18:03.442Z,68.70
2019-03-05T04:22:08.613Z,68.60
2019-03-05T04:26:13.739Z,68.33
2019-03-05T04:30:24.307Z,67.87
2019-03-05T04:39:18.238Z,67.46
2019-03-05T04:43:23.429Z,67.70
2019-03-05T04:47:28.497Z,67.15
2019-03-05T04:51:57.158Z,67.29
2019-03-05T04:56:14.279Z,66.68
2019-03-05T05:00:34.553Z,67.21
2019-03-05T05:04:39.961Z,67.38
2019-03-05T05:08:45.428Z,66.96
2019-03-05T05:13:09.548Z,67.61
2019-03-05T05:17:14.751Z,68.64
2019-03-05T05:25:37.281Z,71.16
2019-03-05T05:29:42.516Z,72.22
2019-03-05T05:33:47.768Z,72.77
2019-03-05T05:38:11.881Z,73.98
2019-03-05T05:42:17.094Z,74.33
2019-03-05T05:46:34.574Z,74.38
2019-03-05T05:50:39.758Z,74.42
2019-03-05T05:54:44.891Z,74.94
2019-03-05T05:59:29.566Z,75.62
2019-03-05T06:03:34.687Z,76.10
2019-03-05T06:07:39.954Z,76.59
2019-03-05T06:11:45.195Z,76.41
2019-03-05T06:15:50.395Z,76.82
2019-03-05T06:20:27.505Z,77.20
2019-03-05T06:24:40.515Z,77.74
2019-03-05T06:28:45.622Z,77.87
2019-03-05T06:32:50.871Z,78.25
2019-03-05T06:36:59.103Z,77.84
2019-03-05T06:41:04.578Z,77.97
2019-03-05T06:45:11.536Z,78.48
2019-03-05T06:49:16.875Z,78.74
2019-03-05T06:53:22.121Z,78.69
2019-03-05T06:57:28.251Z,77.38
2019-03-05T07:01:33.334Z,77.81
2019-03-05T07:06:16.713Z,78.08
2019-03-05T07:10:45.732Z,78.06
2019-03-05T07:15:29.558Z,78.61
2019-03-05T07:20:12.865Z,78.47
2019-03-05T07:24:56.216Z,79.10
2019-03-05T07:29:01.374Z,79.08
2019-03-05T07:33:06.562Z,79.11
2019-03-05T07:37:12.485Z,78.75
2019-03-05T07:41:17.991Z,78.85
2019-03-05T07:49:44.050Z,78.64
2019-03-05T07:53:53.003Z,78.38
2019-03-05T07:57:58.248Z,78.35
2019-03-05T08:02:03.570Z,78.46
2019-03-05T08:06:09.251Z,78.39
2019-03-05T08:10:25.773Z,78.52
2019-03-05T08:15:03.471Z,78.17
2019-03-05T08:19:10.290Z,77.63
2019-03-05T08:23:15.496Z,77.82
2019-03-05T08:27:22.292Z,77.43
2019-03-05T08:31:49.189Z,77.02
2019-03-05T08:35:54.432Z,76.97
2019-03-05T08:39:59.910Z,76.43
2019-03-05T08:44:05.208Z,76.38
2019-03-05T08:48:10.343Z,76.21
2019-03-05T08:52:15.457Z,75.55
2019-03-05T08:56:21.058Z,75.52
2019-03-05T09:00:27.040Z,75.29
2019-03-05T09:04:32.528Z,75.24
2019-03-05T09:08:38.552Z,75.06
2019-03-05T09:17:41.884Z,72.99
2019-03-05T09:21:49.280Z,71.15
2019-03-05T09:26:13.457Z,72.23
2019-03-05T09:30:30.813Z,70.22
2019-03-05T09:34:35.959Z,69.14
2019-03-05T09:38:44.014Z,68.03
2019-03-05T09:42:49.176Z,65.84
2019-03-05T09:46:54.411Z,65.17
2019-03-05T09:50:59.634Z,65.17
2019-03-05T09:55:05.207Z,65.62
2019-03-05T09:59:10.658Z,65.63
2019-03-05T10:03:18.340Z,64.85
2019-03-05T10:08:01.049Z,65.09
2019-03-05T10:12:06.331Z,64.26
2019-03-05T10:16:23.249Z,64.79
2019-03-05T10:20:28.678Z,64.79
2019-03-05T10:24:33.818Z,65.45
2019-03-05T10:28:39.288Z,65.37
2019-03-05T10:42:18.304Z,64.41
2019-03-05T10:46:23.401Z,64.41
2019-03-05T10:59:43.332Z,63.45
2019-03-05T11:03:48.716Z,63.49
2019-03-05T11:07:54.047Z,62.26
2019-03-05T11:12:18.249Z,59.97
2019-03-05T11:16:30.712Z,59.48
2019-03-05T11:20:37.971Z,59.65
2019-03-05T11:24:43.185Z,59.10
2019-03-05T11:28:48.423Z,61.12
2019-03-05T11:32:53.838Z,61.67
2019-03-05T11:36:59.112Z,64.85
2019-03-05T11:41:23.337Z,69.61
2019-03-05T11:45:28.792Z,69.61
2019-03-05T11:49:33.846Z,70.60
2019-03-05T11:53:38.976Z,70.18
2019-03-05T11:57:44.121Z,67.41
2019-03-05T12:02:09.824Z,64.14
2019-03-05T12:06:53.392Z,64.12
2019-03-05T12:10:58.546Z,64.12
2019-03-05T12:15:03.973Z,63.65
2019-03-05T12:19:28.086Z,61.04
2019-03-05T12:23:33.293Z,61.35
2019-03-05T12:27:38.482Z,60.84
2019-03-05T12:31:43.996Z,60.12
2019-03-05T12:35:49.187Z,58.21
2019-03-05T12:39:56.005Z,56.76
2019-03-05T12:44:01.299Z,57.15
2019-03-05T12:48:06.461Z,58.79
2019-03-05T12:52:22.827Z,58.47
2019-03-05T12:56:28.367Z,57.29
2019-03-05T13:00:44.999Z,55.03
2019-03-05T13:04:50.199Z,54.96
2019-03-05T13:08:55.412Z,55.61
2019-03-05T13:13:00.712Z,52.92
2019-03-05T13:17:05.857Z,51.25
2019-03-05T13:21:10.966Z,54.22
2019-03-05T13:25:17.019Z,56.67
2019-03-05T13:29:22.238Z,57.05
2019-03-05T13:33:27.403Z,56.24
2019-03-05T13:37:32.631Z,55.27
2019-03-05T13:41:39.588Z,52.60
2019-03-05T13:45:49.528Z,53.25
2019-03-05T13:50:16.119Z,53.52
2019-03-05T13:54:59.320Z,49.72
2019-03-05T13:59:42.631Z,49.32
2019-03-05T14:04:12.283Z,53.07
2019-03-05T14:08:55.561Z,53.78
2019-03-05T14:13:00.659Z,51.92
2019-03-05T14:21:43.078Z,47.99
2019-03-05T14:25:48.188Z,46.32
2019-03-05T14:29:53.777Z,46.81
2019-03-05T14:33:58.883Z,45.15
2019-03-05T14:38:04.248Z,47.57
2019-03-05T14:46:24.938Z,42.60
2019-03-05T14:50:30.184Z,42.53
2019-03-05T14:59:13.636Z,42.51
2019-03-05T15:03:18.773Z,41.69
2019-03-05T15:07:24.104Z,39.98
2019-03-05T15:11:29.785Z,39.46
2019-03-05T15:15:34.938Z,40.83
2019-03-05T15:19:40.228Z,40.75
2019-03-05T15:23:45.379Z,41.62
2019-03-05T15:27:50.606Z,40.71
2019-03-05T15:31:55.699Z,41.13
2019-03-05T15:36:00.901Z,41.14
2019-03-05T15:40:07.616Z,39.52
2019-03-05T15:44:12.850Z,40.21
2019-03-05T15:48:17.942Z,40.59
2019-03-05T15:52:23.015Z,39.48
2019-03-05T15:56:28.107Z,40.05
2019-03-05T16:00:33.304Z,38.76
2019-03-05T16:04:39.345Z,38.36
2019-03-05T16:08:45.216Z,39.20
2019-03-05T16:12:50.404Z,40.67
2019-03-05T16:16:55.570Z,40.71
2019-03-05T16:21:02.427Z,41.58
2019-03-05T16:25:17.364Z,42.61
2019-03-05T16:29:22.775Z,44.75
2019-03-05T16:33:38.610Z,46.70
2019-03-05T16:38:02.873Z,48.45
2019-03-05T16:42:15.351Z,49.13
2019-03-05T16:46:39.523Z,49.26
2019-03-05T16:51:03.707Z,49.57
2019-03-05T16:55:27.856Z,49.66
2019-03-05T16:59:53.254Z,50.26
2019-03-05T17:04:24.157Z,51.11
2019-03-05T17:09:07.320Z,51.84
2019-03-05T17:13:14.225Z,52.19
2019-03-05T17:17:41.101Z,54.18
2019-03-05T17:21:58.125Z,54.18
2019-03-05T17:26:04.834Z,54.85
2019-03-05T17:30:14.754Z,55.93
2019-03-05T17:34:21.030Z,56.52
2019-03-05T17:38:46.606Z,57.51
2019-03-05T17:43:05.845Z,57.51
2019-03-05T17:47:20.742Z,58.06
2019-03-05T17:51:26.493Z,58.75
2019-03-05T17:55:31.708Z,59.22
2019-03-05T17:59:44.316Z,60.03
2019-03-05T18:03:50.432Z,60.03
2019-03-05T18:07:55.628Z,60.30
2019-03-05T18:12:00.974Z,60.24
2019-03-05T18:16:06.269Z,60.63
2019-03-05T18:20:30.556Z,61.44
2019-03-05T18:24:36.112Z,61.44
2019-03-05T18:28:41.409Z,61.54
2019-03-05T18:32:53.513Z,61.76
2019-03-05T18:36:59.632Z,62.00
2019-03-05T18:41:23.911Z,62.16
2019-03-05T18:45:48.103Z,62.31
2019-03-05T18:50:12.289Z,62.55
2019-03-05T18:54:17.545Z,62.62
2019-03-05T18:58:23.202Z,62.77
2019-03-05T19:02:28.374Z,62.87
2019-03-05T19:06:33.527Z,62.87
2019-03-05T19:10:59.475Z,63.23
2019-03-05T19:15:05.154Z,63.42
2019-03-05T19:19:11.947Z,63.88
2019-03-05T19:28:07.470Z,63.61
2019-03-05T19:32:12.621Z,63.79
2019-03-05T19:36:17.892Z,63.45
2019-03-05T19:40:25.409Z,63.43
2019-03-05T19:44:30.601Z,63.15
2019-03-05T19:48:36.035Z,63.16
2019-03-05T19:52:41.232Z,63.14
2019-03-05T19:56:46.372Z,63.39
2019-03-05T20:00:56.013Z,63.42
2019-03-05T20:05:01.304Z,63.79
2019-03-05T20:09:07.245Z,63.43
2019-03-05T20:13:13.999Z,63.29
2019-03-05T20:17:19.080Z,63.64
2019-03-05T20:21:24.248Z,63.59
2019-03-05T20:29:46.509Z,64.33
2019-03-05T20:33:51.812Z,64.45
2019-03-05T20:37:56.928Z,64.85
2019-03-05T20:42:21.277Z,64.77
2019-03-05T20:46:28.110Z,65.12
2019-03-05T20:50:33.433Z,65.35
2019-03-05T20:54:38.603Z,65.58
2019-03-05T20:59:23.221Z,65.96
2019-03-05T21:03:28.877Z,66.18
2019-03-05T21:07:39.340Z,66.48
2019-03-05T21:11:44.439Z,66.39
2019-03-05T21:15:49.630Z,66.49
2019-03-05T21:19:54.728Z,66.71
2019-03-05T21:23:59.910Z,67.00
2019-03-05T21:28:05.212Z,66.74
2019-03-05T21:32:10.404Z,66.63
2019-03-05T21:36:15.636Z,66.53
2019-03-05T21:40:22.589Z,66.79
2019-03-05T21:44:27.782Z,66.99
2019-03-05T21:48:34.769Z,66.85
2019-03-05T21:52:40.038Z,66.96
2019-03-05T21:56:45.202Z,67.03
2019-03-05T22:00:50.439Z,66.79
2019-03-05T22:04:55.669Z,66.83
2019-03-05T22:09:19.842Z,66.73
2019-03-05T22:13:25.012Z,66.83
2019-03-05T22:17:30.652Z,67.31
2019-03-05T22:21:35.820Z,67.40
2019-03-05T22:25:59.755Z,67.61
2019-03-05T22:30:06.219Z,67.61
2019-03-05T22:34:11.875Z,67.95
2019-03-05T22:38:17.246Z,68.19
2019-03-05T22:42:22.344Z,68.33
2019-03-05T22:46:27.552Z,68.68
2019-03-05T22:50:53.421Z,68.41
2019-03-05T22:54:58.541Z,68.24
2019-03-05T22:59:03.710Z,68.37
2019-03-05T23:03:48.608Z,69.04
2019-03-05T23:07:53.792Z,69.08
2019-03-05T23:16:15.962Z,69.71
2019-03-05T23:25:21.796Z,69.26
2019-03-05T23:29:46.249Z,68.80
2019-03-05T23:33:51.694Z,69.94
2019-03-05T23:37:57.140Z,70.35
2019-03-05T23:42:02.491Z,71.10
2019-03-05T23:46:08.036Z,71.53
2019-03-05T23:50:52.657Z,72.60
2019-03-05T23:54:58.267Z,73.31
2019-03-05T23:59:03.431Z,74.48
